ADDS METAR Data INFO
IDs: Format: Raw Decoded Include TAF

Data at: 1841 UTC 13 Dec 2017

METAR for:PAAK (Atka Arpt, AK, US)
Text:PAAK 131803Z AUTO 11011KT 9SM UP FEW013 OVC036 00/M02 A2958 RMK AO2 UPB02SNE02 P0000 FZRANO
Temperature: 0.0°C ( 32°F)
Dewpoint: -2.0°C ( 28°F) [RH = 86%]
Pressure (altimeter):29.58 inches Hg (1001.8 mb)
Winds:from the ESE (110 degrees) at 13 MPH (11 knots; 5.7 m/s)
Visibility: 9 sm ( 14 km)
Ceiling:3600 feet AGL
Clouds: few clouds at 1300 feet AGL, overcast cloud deck at 3600 feet AGL
Weather:UP (unknown precipitation)
QC Flag:automated observation with no human augmentation
Text:PAAK 131756Z AUTO 13009KT 4SM -SN BR FEW013 BKN021 OVC038 00/M02 A2958 RMK AO2 SLP020 P0000 60000 T00001017 10000 21033 56021 FZRANO
Temperature: 0.0°C ( 32°F)
Dewpoint: -1.7°C ( 29°F) [RH = 88%]
Pressure (altimeter):29.58 inches Hg (1001.8 mb) [Sea level pressure: 1002.0 mb]
Winds:from the SE (130 degrees) at 10 MPH (9 knots; 4.6 m/s)
Visibility: 4 sm ( 6 km)
Ceiling:2100 feet AGL
Clouds: few clouds at 1300 feet AGL, broken clouds at 2100 feet AGL, overcast cloud deck at 3800 feet AGL
Weather:-SN BR (light snow, mist)
QC Flag:automated observation with no human augmentation
Text:PAAK 131726Z AUTO 17003KT 7SM -SN FEW009 BKN027 OVC039 M01/M03 A2960 RMK AO2 P0000 FZRANO
Temperature: -1.0°C ( 30°F)
Dewpoint: -3.0°C ( 27°F) [RH = 86%]
Pressure (altimeter):29.60 inches Hg (1002.5 mb)
Winds:from the S (170 degrees) at 3 MPH (3 knots; 1.5 m/s)
Visibility: 7 sm ( 11 km)
Ceiling:2700 feet AGL
Clouds: few clouds at 900 feet AGL, broken clouds at 2700 feet AGL, overcast cloud deck at 3900 feet AGL
Weather:-SN (light snow)
QC Flag:automated observation with no human augmentation
Text:PAAK 131712Z AUTO 17004KT 3SM -SN BR FEW004 BKN010 OVC090 M01/M02 A2960 RMK AO2 CIG 007V012 P0000 FZRANO
Temperature: -1.0°C ( 30°F)
Dewpoint: -2.0°C ( 28°F) [RH = 93%]
Pressure (altimeter):29.60 inches Hg (1002.5 mb)
Winds:from the S (170 degrees) at 5 MPH (4 knots; 2.1 m/s)
Visibility: 3 sm ( 5 km)
Ceiling:1000 feet AGL
Clouds: few clouds at 400 feet AGL, broken clouds at 1000 feet AGL, overcast cloud deck at 9000 feet AGL
Weather:-SN BR (light snow, mist)
QC Flag:automated observation with no human augmentation
Text:PAAK 131704Z AUTO 14008KT 1SM -SN BR BKN010 OVC015 M01/M02 A2960 RMK AO2 CIG 004V013 P0000 FZRANO
Temperature: -1.0°C ( 30°F)
Dewpoint: -2.0°C ( 28°F) [RH = 93%]
Pressure (altimeter):29.60 inches Hg (1002.5 mb)
Winds:from the SE (140 degrees) at 9 MPH (8 knots; 4.1 m/s)
Visibility: 1.00 sm ( 1.61 km)
Ceiling:1000 feet AGL
Clouds: broken clouds at 1000 feet AGL, overcast cloud deck at 1500 feet AGL
Weather:-SN BR (light snow, mist)
QC Flag:automated observation with no human augmentation
Text:PAAK 131656Z AUTO 14009KT 1 1/4SM -SN BR BKN010 BKN015 OVC022 M01/M02 A2960 RMK AO2 CIG 007V013 SLP027 P0000 T10061022 FZRANO
Temperature: -0.6°C ( 31°F)
Dewpoint: -2.2°C ( 28°F) [RH = 89%]
Pressure (altimeter):29.60 inches Hg (1002.5 mb) [Sea level pressure: 1002.7 mb]
Winds:from the SE (140 degrees) at 10 MPH (9 knots; 4.6 m/s)
Visibility: 1.25 sm ( 2.01 km)
Ceiling:1000 feet AGL
Clouds: broken clouds at 1000 feet AGL, broken clouds at 1500 feet AGL, overcast cloud deck at 2200 feet AGL
Weather:-SN BR (light snow, mist)
QC Flag:automated observation with no human augmentation
Text:PAAK 131653Z AUTO 12009KT 1 3/4SM -SN BR SCT010 BKN015 OVC022 00/M02 A2961 RMK AO2 P0000 FZRANO
Temperature: 0.0°C ( 32°F)
Dewpoint: -2.0°C ( 28°F) [RH = 86%]
Pressure (altimeter):29.61 inches Hg (1002.8 mb)
Winds:from the ESE (120 degrees) at 10 MPH (9 knots; 4.6 m/s)
Visibility: 1.75 sm ( 2.82 km)
Ceiling:1500 feet AGL
Clouds: scattered clouds at 1000 feet AGL, broken clouds at 1500 feet AGL, overcast cloud deck at 2200 feet AGL
Weather:-SN BR (light snow, mist)
QC Flag:automated observation with no human augmentation
Text:PAAK 131631Z AUTO 18004KT 9SM -SN BKN011 BKN024 OVC040 M01/M03 A2961 RMK AO2 P0000 FZRANO
Temperature: -1.0°C ( 30°F)
Dewpoint: -3.0°C ( 27°F) [RH = 86%]
Pressure (altimeter):29.61 inches Hg (1002.8 mb)
Winds:from the S (180 degrees) at 5 MPH (4 knots; 2.1 m/s)
Visibility: 9 sm ( 14 km)
Ceiling:1100 feet AGL
Clouds: broken clouds at 1100 feet AGL, broken clouds at 2400 feet AGL, overcast cloud deck at 4000 feet AGL
Weather:-SN (light snow)
QC Flag:automated observation with no human augmentation
Text:PAAK 131618Z AUTO 15005KT 5SM -SN BR FEW009 BKN029 OVC036 M01/M02 A2962 RMK AO2 P0000 FZRANO
Temperature: -1.0°C ( 30°F)
Dewpoint: -2.0°C ( 28°F) [RH = 93%]
Pressure (altimeter):29.62 inches Hg (1003.1 mb)
Winds:from the SSE (150 degrees) at 6 MPH (5 knots; 2.6 m/s)
Visibility: 5 sm ( 8 km)
Ceiling:2900 feet AGL
Clouds: few clouds at 900 feet AGL, broken clouds at 2900 feet AGL, overcast cloud deck at 3600 feet AGL
Weather:-SN BR (light snow, mist)
QC Flag:automated observation with no human augmentation
Text:PAAK 131556Z AUTO 18003KT 9SM -SN BKN028 OVC034 M01/M03 A2962 RMK AO2 SNE19B39 SLP034 P0000 T10111033 FZRANO
Temperature: -1.1°C ( 30°F)
Dewpoint: -3.3°C ( 26°F) [RH = 85%]
Pressure (altimeter):29.62 inches Hg (1003.1 mb) [Sea level pressure: 1003.4 mb]
Winds:from the S (180 degrees) at 3 MPH (3 knots; 1.5 m/s)
Visibility: 9 sm ( 14 km)
Ceiling:2800 feet AGL
Clouds: broken clouds at 2800 feet AGL, overcast cloud deck at 3400 feet AGL
Weather:-SN (light snow)
QC Flag:automated observation with no human augmentation
Text:PAAK 131548Z AUTO 14006KT 9SM -SN BKN028 OVC036 M01/M03 A2963 RMK AO2 SNE19B39 P0000 FZRANO
Temperature: -1.0°C ( 30°F)
Dewpoint: -3.0°C ( 27°F) [RH = 86%]
Pressure (altimeter):29.63 inches Hg (1003.5 mb)
Winds:from the SE (140 degrees) at 7 MPH (6 knots; 3.1 m/s)
Visibility: 9 sm ( 14 km)
Ceiling:2800 feet AGL
Clouds: broken clouds at 2800 feet AGL, overcast cloud deck at 3600 feet AGL
Weather:-SN (light snow)
QC Flag:automated observation with no human augmentation
Text:PAAK 131515Z AUTO 00000KT 9SM -SN SCT020 SCT036 BKN060 M02/M04 A2964 RMK AO2 P0000 FZRANO
Temperature: -2.0°C ( 28°F)
Dewpoint: -4.0°C ( 25°F) [RH = 86%]
Pressure (altimeter):29.64 inches Hg (1003.8 mb)
Winds:calm
Visibility: 9 sm ( 14 km)
Ceiling:6000 feet AGL
Clouds: scattered clouds at 2000 feet AGL, scattered clouds at 3600 feet AGL, broken clouds at 6000 feet AGL
Weather:-SN (light snow)
QC Flag:automated observation with no human augmentation
Text:PAAK 131456Z AUTO 00000KT 3SM -SN BR BKN018 OVC026 M02/M03 A2965 RMK AO2 SNB03 SLP041 P0000 60000 T10171033 56004 FZRANO
Temperature: -1.7°C ( 29°F)
Dewpoint: -3.3°C ( 26°F) [RH = 89%]
Pressure (altimeter):29.65 inches Hg (1004.1 mb) [Sea level pressure: 1004.1 mb]
Winds:calm
Visibility: 3 sm ( 5 km)
Ceiling:1800 feet AGL
Clouds: broken clouds at 1800 feet AGL, overcast cloud deck at 2600 feet AGL
Weather:-SN BR (light snow, mist)
QC Flag:automated observation with no human augmentation
Text:PAAK 131454Z AUTO 00000KT 3SM -SN BR SCT015 BKN021 OVC032 M02/M03 A2965 RMK AO2 SNB03 P0000 FZRANO
Temperature: -2.0°C ( 28°F)
Dewpoint: -3.0°C ( 27°F) [RH = 93%]
Pressure (altimeter):29.65 inches Hg (1004.1 mb)
Winds:calm
Visibility: 3 sm ( 5 km)
Ceiling:2100 feet AGL
Clouds: scattered clouds at 1500 feet AGL, broken clouds at 2100 feet AGL, overcast cloud deck at 3200 feet AGL
Weather:-SN BR (light snow, mist)
QC Flag:automated observation with no human augmentation
Text:PAAK 131445Z AUTO 19003KT 1 3/4SM -SN BR BKN015 BKN019 OVC032 M02/M03 A2965 RMK AO2 SNB03 P0000 FZRANO
Temperature: -2.0°C ( 28°F)
Dewpoint: -3.0°C ( 27°F) [RH = 93%]
Pressure (altimeter):29.65 inches Hg (1004.1 mb)
Winds:from the S (190 degrees) at 3 MPH (3 knots; 1.5 m/s)
Visibility: 1.75 sm ( 2.82 km)
Ceiling:1500 feet AGL
Clouds: broken clouds at 1500 feet AGL, broken clouds at 1900 feet AGL, overcast cloud deck at 3200 feet AGL
Weather:-SN BR (light snow, mist)
QC Flag:automated observation with no human augmentation
Text:PAAK 131433Z AUTO 18003KT 5SM -SN BR FEW013 BKN021 OVC034 M02/M04 A2965 RMK AO2 SNB03 P0000 FZRANO
Temperature: -2.0°C ( 28°F)
Dewpoint: -4.0°C ( 25°F) [RH = 86%]
Pressure (altimeter):29.65 inches Hg (1004.1 mb)
Winds:from the S (180 degrees) at 3 MPH (3 knots; 1.5 m/s)
Visibility: 5 sm ( 8 km)
Ceiling:2100 feet AGL
Clouds: few clouds at 1300 feet AGL, broken clouds at 2100 feet AGL, overcast cloud deck at 3400 feet AGL
Weather:-SN BR (light snow, mist)
QC Flag:automated observation with no human augmentation
Text:PAAK 131423Z AUTO 00000KT 2SM -SN BKN021 BKN027 OVC037 M02/M06 A2966 RMK AO2 VIS 3/4V5 SNB03 P0000 FZRANO
Temperature: -2.0°C ( 28°F)
Dewpoint: -6.0°C ( 21°F) [RH = 74%]
Pressure (altimeter):29.66 inches Hg (1004.5 mb)
Winds:calm
Visibility: 2.00 sm ( 3.22 km)
Ceiling:2100 feet AGL
Clouds: broken clouds at 2100 feet AGL, broken clouds at 2700 feet AGL, overcast cloud deck at 3700 feet AGL
Weather:-SN (light snow)
QC Flag:automated observation with no human augmentation
Text:PAAK 131416Z AUTO 00000KT 3SM -SN SCT021 BKN027 OVC037 M02/M06 A2966 RMK AO2 SNB03 P0000 FZRANO
Temperature: -2.0°C ( 28°F)
Dewpoint: -6.0°C ( 21°F) [RH = 74%]
Pressure (altimeter):29.66 inches Hg (1004.5 mb)
Winds:calm
Visibility: 3 sm ( 5 km)
Ceiling:2700 feet AGL
Clouds: scattered clouds at 2100 feet AGL, broken clouds at 2700 feet AGL, overcast cloud deck at 3700 feet AGL
Weather:-SN (light snow)
QC Flag:automated observation with no human augmentation
Text:PAAK 131356Z AUTO 00000KT 10SM BKN038 BKN045 OVC055 M02/M07 A2966 RMK AO2 SLP046 T10171067 FZRANO
Temperature: -1.7°C ( 29°F)
Dewpoint: -6.7°C ( 20°F) [RH = 69%]
Pressure (altimeter):29.66 inches Hg (1004.5 mb) [Sea level pressure: 1004.6 mb]
Winds:calm
Visibility:10 or more sm (16+ km)
Ceiling:3800 feet AGL
Clouds: broken clouds at 3800 feet AGL, broken clouds at 4500 feet AGL, overcast cloud deck at 5500 feet AGL
QC Flag:automated observation with no human augmentation
Text:PAAK 131256Z AUTO 00000KT 10SM OVC050 M02/M07 A2966 RMK AO2 SLP046 T10221072 FZRANO
Temperature: -2.2°C ( 28°F)
Dewpoint: -7.2°C ( 19°F) [RH = 69%]
Pressure (altimeter):29.66 inches Hg (1004.5 mb) [Sea level pressure: 1004.6 mb]
Winds:calm
Visibility:10 or more sm (16+ km)
Ceiling:5000 feet AGL
Clouds: overcast cloud deck at 5000 feet AGL
QC Flag:automated observation with no human augmentation
Text:PAAK 131056Z AUTO 00000KT 10SM OVC050 M03/M08 A2969 RMK AO2 SLP057 T10281083 FZRANO
Temperature: -2.8°C ( 27°F)
Dewpoint: -8.3°C ( 17°F) [RH = 66%]
Pressure (altimeter):29.69 inches Hg (1005.5 mb) [Sea level pressure: 1005.7 mb]
Winds:calm
Visibility:10 or more sm (16+ km)
Ceiling:5000 feet AGL
Clouds: overcast cloud deck at 5000 feet AGL
QC Flag:automated observation with no human augmentation
Text:PAAK 130956Z AUTO 00000KT 10SM OVC050 M04/M09 A2971 RMK AO2 SLP062 T10391089 400061050 FZRANO
Temperature: -3.9°C ( 25°F)
Dewpoint: -8.9°C ( 16°F) [RH = 68%]
Pressure (altimeter):29.71 inches Hg (1006.2 mb) [Sea level pressure: 1006.2 mb]
Winds:calm
Visibility:10 or more sm (16+ km)
Ceiling:5000 feet AGL
Clouds: overcast cloud deck at 5000 feet AGL
QC Flag:automated observation with no human augmentation
Text:PAAK 130756Z AUTO 00000KT 10SM CLR M03/M08 A2972 RMK AO2 SLP066 T10331078 FZRANO
Temperature: -3.3°C ( 26°F)
Dewpoint: -7.8°C ( 18°F) [RH = 71%]
Pressure (altimeter):29.72 inches Hg (1006.5 mb) [Sea level pressure: 1006.6 mb]
Winds:calm
Visibility:10 or more sm (16+ km)
Ceiling:at least 12,000 feet AGL
Clouds:sky clear below 12,000 feet AGL
QC Flag:automated observation with no human augmentation
Text:PAAK 130656Z AUTO 32003KT 10SM OVC055 M04/M08 A2972 RMK AO2 SLP065 T10391078 FZRANO
Temperature: -3.9°C ( 25°F)
Dewpoint: -7.8°C ( 18°F) [RH = 74%]
Pressure (altimeter):29.72 inches Hg (1006.5 mb) [Sea level pressure: 1006.5 mb]
Winds:from the NW (320 degrees) at 3 MPH (3 knots; 1.5 m/s)
Visibility:10 or more sm (16+ km)
Ceiling:5500 feet AGL
Clouds: overcast cloud deck at 5500 feet AGL
QC Flag:automated observation with no human augmentation